Time;durP1;ratioP1;P1;durP2;ratioP2;P2;SDS_P1;SDS_P2;PMS_P1;PMS_P2;Temp;Humidity;BMP_temperature;BMP_pressure;BME280_temperature;BME280_humidity;BME280_pressure;Samples;Min_cycle;Max_cycle;Signal;HPM_P1;HPM_P2
2021/06/20 00:00:27;;;;;;;13.75;11.40;;;;;;;23.08;81.08;95044.31;1034572;28;20481;-79
2021/06/20 00:00:58;;;;;;;18.25;10.93;;;;;;;22.94;81.33;95018.88;1026643;28;20125;-80
2021/06/20 00:01:29;;;;;;;13.10;10.30;;;;;;;23.13;80.98;95041.56;1034485;28;20543;-82
2021/06/20 00:01:59;;;;;;;13.43;9.65;;;;;;;23.18;80.88;95048.84;1029273;28;20035;-82
2021/06/20 00:02:30;;;;;;;12.13;10.88;;;;;;;23.08;81.31;95035.38;1028502;28;20022;-80
2021/06/20 00:03:00;;;;;;;13.77;10.52;;;;;;;23.05;81.35;95041.31;1028530;28;20149;-80
2021/06/20 00:03:31;;;;;;;15.02;10.65;;;;;;;22.89;81.66;95024.31;1036321;28;20022;-80
2021/06/20 00:04:02;;;;;;;14.40;10.88;;;;;;;22.92;81.94;95032.69;1036615;28;20089;-81
2021/06/20 00:04:33;;;;;;;14.23;9.70;;;;;;;22.99;81.69;95040.53;1032407;28;20041;-80
2021/06/20 00:05:05;;;;;;;13.43;10.35;;;;;;;22.84;81.95;95017.00;1032460;28;20014;-81
2021/06/20 00:05:39;;;;;;;12.18;10.35;;;;;;;23.05;81.49;95044.84;1032499;28;20504;-80
2021/06/20 00:06:34;;;;;;;14.23;10.18;;;;;;;23.01;81.47;95040.22;1036519;28;20077;-80
2021/06/20 00:07:05;;;;;;;14.40;10.48;;;;;;;23.03;81.64;95036.16;1036250;28;20371;-83
2021/06/20 00:07:36;;;;;;;12.18;9.75;;;;;;;23.03;81.34;95033.47;1028414;28;20015;-82
2021/06/20 00:08:07;;;;;;;11.45;9.70;;;;;;;22.98;81.54;95028.88;1024348;29;20051;-80
2021/06/20 00:08:37;;;;;;;13.30;10.30;;;;;;;22.83;81.73;95015.38;1032396;28;20014;-81
2021/06/20 00:09:10;;;;;;;13.13;10.48;;;;;;;22.95;81.77;95028.59;1032366;28;20114;-81
2021/06/20 00:09:41;;;;;;;12.55;10.70;;;;;;;22.64;81.71;94971.88;1032674;28;20476;-81
2021/06/20 00:10:13;;;;;;;14.00;9.93;;;;;;;23.03;81.43;95027.25;1028417;28;20105;-81
2021/06/20 00:10:44;;;;;;;11.85;10.45;;;;;;;22.93;81.84;95006.41;1036356;28;20033;-80
2021/06/20 00:11:14;;;;;;;12.00;10.60;;;;;;;22.89;81.89;95005.38;1028450;28;20026;-80
2021/06/20 00:11:46;;;;;;;12.65;10.30;;;;;;;22.93;81.56;95007.22;1028307;28;20147;-80
2021/06/20 00:12:17;;;;;;;11.98;9.45;;;;;;;23.10;81.28;95028.56;1028268;28;20026;-81
2021/06/20 00:12:48;;;;;;;10.48;9.30;;;;;;;22.97;81.09;94999.34;1040586;28;20029;-80
2021/06/20 00:13:19;;;;;;;10.98;9.73;;;;;;;23.15;80.79;95025.84;1032474;28;20148;-80
2021/06/20 00:13:50;;;;;;;10.20;9.10;;;;;;;23.13;80.35;95022.59;1028513;28;20086;-81
2021/06/20 00:14:20;;;;;;;11.80;9.18;;;;;;;23.18;80.43;95029.88;1028625;28;20585;-82
2021/06/20 00:14:51;;;;;;;13.93;9.80;;;;;;;22.93;80.67;94993.69;1032508;28;20022;-83
2021/06/20 00:15:22;;;;;;;18.23;9.70;;;;;;;23.12;80.71;95029.09;1032447;28;20125;-79
2021/06/20 00:15:53;;;;;;;14.00;9.77;;;;;;;23.21;80.61;95042.06;1028496;28;20030;-81
2021/06/20 00:16:24;;;;;;;12.90;9.80;;;;;;;22.79;81.48;94998.88;1028633;28;20034;-80
2021/06/20 00:16:54;;;;;;;10.68;9.50;;;;;;;22.82;81.66;95011.06;1032573;28;20026;-80
2021/06/20 00:17:25;;;;;;;13.73;9.57;;;;;;;22.87;82.00;95034.59;1028253;28;20114;-82
2021/06/20 00:17:56;;;;;;;15.13;10.95;;;;;;;22.71;82.67;95023.84;1028736;28;20514;-80
2021/06/20 00:18:26;;;;;;;11.90;9.73;;;;;;;22.58;82.49;95000.03;1028266;28;20019;-82
2021/06/20 00:18:58;;;;;;;10.63;9.52;;;;;;;22.35;82.96;94967.09;1029096;28;20089;-80
2021/06/20 00:19:28;;;;;;;14.38;10.75;;;;;;;22.76;82.84;95026.53;1028353;28;20019;-80
2021/06/20 00:19:59;;;;;;;10.80;9.70;;;;;;;22.69;82.95;95015.16;1044655;28;20013;-82
2021/06/20 00:20:32;;;;;;;12.77;9.73;;;;;;;22.79;82.72;95025.94;1036009;28;20045;-81
2021/06/20 00:21:03;;;;;;;12.23;9.57;;;;;;;22.79;82.93;95020.53;1028455;28;20055;-80
2021/06/20 00:21:34;;;;;;;11.52;10.23;;;;;;;22.84;82.82;95025.13;1036791;28;20190;-81
2021/06/20 00:22:05;;;;;;;11.80;9.57;;;;;;;22.81;83.08;95033.00;1040641;28;20040;-82
2021/06/20 00:22:35;;;;;;;10.70;9.60;;;;;;;22.51;83.14;94988.72;1040569;28;20105;-80
2021/06/20 00:23:06;;;;;;;10.27;9.18;;;;;;;22.72;83.06;95014.63;1036771;28;20087;-81
2021/06/20 00:23:36;;;;;;;11.55;9.38;;;;;;;22.87;82.77;95023.75;1032310;28;20029;-79
2021/06/20 00:24:07;;;;;;;12.55;9.40;;;;;;;22.65;82.82;95005.97;1040730;28;20045;-81
2021/06/20 00:24:39;;;;;;;14.48;10.18;;;;;;;22.70;83.39;95027.63;1027670;29;20082;-81
2021/06/20 00:25:10;;;;;;;13.32;10.18;;;;;;;22.64;83.82;95019.78;1036660;28;20026;-83
2021/06/20 00:25:40;;;;;;;12.95;10.30;;;;;;;22.70;83.41;95016.78;1036517;28;20021;-81
2021/06/20 00:26:11;;;;;;;16.23;10.05;;;;;;;22.64;83.26;94996.25;1028389;28;20050;-82
2021/06/20 00:26:42;;;;;;;11.52;10.02;;;;;;;22.76;83.01;95006.75;1024191;28;20069;-80
2021/06/20 00:27:12;;;;;;;14.45;10.45;;;;;;;22.84;82.81;95013.50;1028168;28;20156;-82
2021/06/20 00:27:43;;;;;;;13.55;9.85;;;;;;;22.86;82.63;95008.63;1028628;28;20110;-80
2021/06/20 00:28:14;;;;;;;11.02;9.82;;;;;;;22.91;82.63;95011.31;1032173;28;20561;-82
2021/06/20 00:28:44;;;;;;;10.43;9.43;;;;;;;22.94;82.35;95011.56;1028078;28;20559;-80
2021/06/20 00:29:15;;;;;;;10.52;9.43;;;;;;;22.90;82.62;95007.78;1032215;28;20022;-80
2021/06/20 00:29:45;;;;;;;12.55;10.00;;;;;;;22.91;82.60;95012.09;1028365;28;20398;-80
2021/06/20 00:30:18;;;;;;;14.98;9.45;;;;;;;22.84;82.40;94991.84;1028400;28;20102;-81
2021/06/20 00:30:50;;;;;;;11.88;9.38;;;;;;;22.91;82.27;94984.22;1032458;28;20069;-80
2021/06/20 00:31:22;;;;;;;12.48;9.07;;;;;;;23.00;82.59;95014.25;1031986;28;20046;-81
2021/06/20 00:31:54;;;;;;;10.68;9.38;;;;;;;22.92;82.52;95004.78;1028544;28;20023;-81
2021/06/20 00:32:24;;;;;;;12.43;9.32;;;;;;;22.94;82.66;95008.03;1024618;28;20440;-81
2021/06/20 00:32:55;;;;;;;11.30;10.20;;;;;;;22.83;82.63;94987.50;1027810;28;20041;-80
2021/06/20 00:33:26;;;;;;;10.73;9.65;;;;;;;22.90;82.81;95001.53;1024330;28;20015;-80
2021/06/20 00:33:57;;;;;;;11.13;9.93;;;;;;;22.79;83.03;94993.47;1028576;28;20034;-80
2021/06/20 00:34:27;;;;;;;12.95;9.13;;;;;;;22.89;83.29;95006.16;1028218;28;20159;-82
2021/06/20 00:34:58;;;;;;;11.80;10.20;;;;;;;22.74;83.52;94996.19;1020359;29;20606;-82
2021/06/20 00:35:28;;;;;;;15.57;10.15;;;;;;;22.55;83.34;94971.66;1024142;29;20019;-82
2021/06/20 00:35:59;;;;;;;10.60;8.93;;;;;;;22.55;83.81;94984.34;1027500;28;20062;-80
2021/06/20 00:36:30;;;;;;;11.55;9.90;;;;;;;22.59;84.29;94997.06;1032115;28;20133;-80
2021/06/20 00:37:00;;;;;;;13.25;10.02;;;;;;;22.52;84.02;94984.91;1027883;28;20031;-81
2021/06/20 00:37:31;;;;;;;11.32;10.05;;;;;;;22.59;83.91;94988.16;1028042;28;20018;-82
2021/06/20 00:38:01;;;;;;;12.75;10.35;;;;;;;22.72;84.10;95009.19;1036071;28;20030;-80
2021/06/20 00:38:32;;;;;;;11.23;10.00;;;;;;;22.71;84.19;95015.72;1024302;29;20126;-81
2021/06/20 00:39:03;;;;;;;10.93;9.77;;;;;;;22.72;84.10;95011.09;1032543;28;20105;-80
2021/06/20 00:39:34;;;;;;;11.68;9.60;;;;;;;22.71;83.86;95001.34;1028295;28;20122;-80
2021/06/20 00:40:05;;;;;;;11.55;9.65;;;;;;;22.72;83.84;94998.38;1032350;28;20614;-81
2021/06/20 00:40:35;;;;;;;12.93;10.82;;;;;;;22.73;83.83;94994.59;1032253;28;20026;-80
2021/06/20 00:41:06;;;;;;;13.30;9.93;;;;;;;22.73;83.77;94988.38;1028440;28;20046;-82
2021/06/20 00:41:38;;;;;;;12.88;9.82;;;;;;;22.77;83.69;94995.63;1032392;28;20403;-81
2021/06/20 00:42:09;;;;;;;11.15;9.00;;;;;;;22.83;83.47;95001.84;1028363;28;20055;-81
2021/06/20 00:42:39;;;;;;;10.43;9.32;;;;;;;22.84;83.54;94999.97;1024344;29;20031;-82
2021/06/20 00:43:10;;;;;;;14.52;9.55;;;;;;;22.78;83.35;94996.44;1032475;28;20033;-82
2021/06/20 00:43:41;;;;;;;15.30;10.35;;;;;;;22.73;83.10;94988.38;1028271;28;20137;-81
2021/06/20 00:44:11;;;;;;;12.70;9.40;;;;;;;22.85;82.84;94999.69;1033036;28;20026;-81
2021/06/20 00:44:46;;;;;;;10.32;9.27;;;;;;;22.91;83.02;95003.19;1037249;28;20558;-81
2021/06/20 00:45:18;;;;;;;11.70;9.57;;;;;;;22.83;82.96;94993.72;1033373;28;20029;-80
2021/06/20 00:45:49;;;;;;;12.13;9.70;;;;;;;22.86;83.11;95003.19;1033271;28;20022;-80
2021/06/20 00:46:19;;;;;;;13.25;9.55;;;;;;;22.72;83.26;94987.53;1029280;28;20034;-82
2021/06/20 00:46:50;;;;;;;10.60;9.40;;;;;;;22.86;83.18;95009.41;1033345;28;20030;-82
2021/06/20 00:47:21;;;;;;;9.80;8.88;;;;;;;22.86;83.06;94993.16;1037094;28;20018;-81
2021/06/20 00:47:55;;;;;;;11.45;9.95;;;;;;;22.82;83.22;94988.59;1037210;28;20026;-82
2021/06/20 00:48:25;;;;;;;11.85;9.52;;;;;;;22.79;83.26;94992.66;1037188;28;20026;-81
2021/06/20 00:48:56;;;;;;;10.85;9.60;;;;;;;22.76;83.09;94977.78;1033237;28;20033;-82
2021/06/20 00:49:26;;;;;;;10.40;9.30;;;;;;;22.83;83.10;94987.50;1033503;28;20433;-82
2021/06/20 00:49:57;;;;;;;11.68;9.52;;;;;;;22.86;83.00;94985.03;1030144;28;20023;-82
2021/06/20 00:50:28;;;;;;;12.98;9.75;;;;;;;22.92;82.87;94993.94;1037595;28;20098;-82
2021/06/20 00:50:58;;;;;;;12.13;9.77;;;;;;;22.76;83.03;94977.78;1033859;28;20037;-83
2021/06/20 00:51:29;;;;;;;12.48;9.32;;;;;;;22.93;82.83;94995.59;1034514;28;20022;-81
2021/06/20 00:51:59;;;;;;;11.75;9.40;;;;;;;22.92;82.94;94993.94;1038826;28;20503;-80
2021/06/20 00:52:30;;;;;;;11.85;9.30;;;;;;;22.92;83.19;94991.25;1038445;28;20093;-80
2021/06/20 00:53:01;;;;;;;10.65;9.55;;;;;;;22.81;83.06;94970.72;1030294;28;20106;-81
2021/06/20 00:53:32;;;;;;;11.48;9.70;;;;;;;22.84;82.70;94976.41;1026047;29;20031;-81
2021/06/20 00:54:04;;;;;;;11.60;9.85;;;;;;;22.91;82.59;94995.06;1029558;28;20030;-82
2021/06/20 00:54:34;;;;;;;13.57;9.88;;;;;;;22.89;82.66;94978.28;1037512;28;20098;-81
2021/06/20 00:55:05;;;;;;;12.88;9.32;;;;;;;22.88;82.60;94979.34;1041560;28;20542;-82
2021/06/20 00:55:37;;;;;;;11.25;9.40;;;;;;;22.95;82.43;94985.28;1029527;28;20033;-82
2021/06/20 00:56:08;;;;;;;13.10;9.25;;;;;;;22.95;82.29;94982.56;1025444;29;20037;-80
2021/06/20 00:56:39;;;;;;;13.23;9.95;;;;;;;22.79;82.31;94966.38;1029348;28;20023;-81
2021/06/20 00:57:09;;;;;;;10.57;9.55;;;;;;;22.74;82.66;94961.00;1037703;28;20526;-82
2021/06/20 00:57:40;;;;;;;11.48;9.23;;;;;;;22.89;82.68;94986.41;1034094;28;20029;-81
2021/06/20 00:58:11;;;;;;;12.13;9.55;;;;;;;22.82;82.37;94967.75;1029661;28;20102;-83
2021/06/20 00:58:42;;;;;;;12.02;10.05;;;;;;;22.90;82.45;94982.59;1037632;28;20117;-81
2021/06/20 00:59:13;;;;;;;13.75;10.00;;;;;;;22.74;82.63;94963.69;1037943;28;20038;-82
2021/06/20 00:59:44;;;;;;;12.07;9.80;;;;;;;22.86;82.69;94990.47;1029459;28;20050;-82
2021/06/20 01:00:15;;;;;;;13.75;9.27;;;;;;;22.87;82.96;94980.44;1034101;28;20031;-81
2021/06/20 01:00:45;;;;;;;11.38;9.57;;;;;;;22.60;82.98;94949.94;1029382;28;20500;-82
2021/06/20 01:01:16;;;;;;;11.32;9.48;;;;;;;22.75;83.44;94989.69;1021421;29;20055;-80
2021/06/20 01:01:46;;;;;;;12.55;9.38;;;;;;;22.75;83.67;94989.69;1037241;28;20491;-80
2021/06/20 01:02:18;;;;;;;13.15;11.32;;;;;;;22.75;83.90;94994.31;1037212;28;20026;-79
2021/06/20 01:02:49;;;;;;;11.98;9.75;;;;;;;22.69;83.70;94993.50;1037199;28;20021;-81
2021/06/20 01:03:19;;;;;;;10.38;9.27;;;;;;;22.68;83.41;94983.78;1033730;28;20098;-83
2021/06/20 01:03:50;;;;;;;11.65;9.85;;;;;;;22.66;83.24;94990.53;1037463;28;20083;-82
2021/06/20 01:04:20;;;;;;;12.65;9.82;;;;;;;22.66;83.38;94988.66;1037437;28;20036;-82
2021/06/20 01:04:51;;;;;;;12.15;10.02;;;;;;;22.67;83.38;94994.88;1037294;28;20558;-81
2021/06/20 01:05:22;;;;;;;12.00;9.65;;;;;;;22.63;83.26;94988.41;1037428;28;20089;-82
2021/06/20 01:05:52;;;;;;;10.90;9.80;;;;;;;22.71;83.37;94995.94;1037199;28;20093;-81
2021/06/20 01:06:23;;;;;;;11.27;10.13;;;;;;;22.65;83.39;94989.72;1033090;28;20492;-82
2021/06/20 01:06:54;;;;;;;13.50;9.90;;;;;;;22.58;83.35;94978.41;1033113;28;20394;-82
2021/06/20 01:07:25;;;;;;;14.80;9.77;;;;;;;22.73;83.19;94999.19;1029261;28;20023;-81
2021/06/20 01:07:56;;;;;;;10.25;9.13;;;;;;;22.67;83.16;94984.03;1029384;28;20388;-81
2021/06/20 01:08:29;;;;;;;11.80;10.15;;;;;;;22.75;83.08;94997.81;1029226;28;20060;-82
2021/06/20 01:08:59;;;;;;;11.30;8.85;;;;;;;22.73;83.20;94994.59;1029063;28;20027;-82
2021/06/20 01:09:30;;;;;;;14.07;9.30;;;;;;;22.68;82.82;94978.38;1029104;28;20108;-82
2021/06/20 01:10:01;;;;;;;14.85;10.07;;;;;;;22.79;82.89;95003.50;1025247;29;20110;-82
2021/06/20 01:10:36;;;;;;;12.23;9.27;;;;;;;22.73;83.19;95000.00;1029033;28;20077;-80
2021/06/20 01:11:06;;;;;;;12.95;10.02;;;;;;;22.69;83.10;94993.50;1029591;28;20050;-81
2021/06/20 01:11:37;;;;;;;12.23;10.00;;;;;;;22.69;83.16;94993.50;1037592;28;20168;-80
2021/06/20 01:12:08;;;;;;;10.93;9.90;;;;;;;22.71;83.28;94995.94;1029371;28;20026;-81
2021/06/20 01:12:38;;;;;;;11.40;9.68;;;;;;;22.54;83.15;94972.72;1033497;28;20038;-80
2021/06/20 01:13:11;;;;;;;12.25;9.60;;;;;;;22.69;82.84;94992.69;1041415;28;20538;-80
2021/06/20 01:13:43;;;;;;;11.98;9.23;;;;;;;22.76;82.66;94995.91;1029272;28;20038;-81
2021/06/20 01:14:14;;;;;;;10.73;9.40;;;;;;;22.83;82.64;95006.47;1033326;28;20126;-80
2021/06/20 01:14:45;;;;;;;11.25;9.25;;;;;;;22.81;82.81;95004.03;1033177;28;20544;-80
2021/06/20 01:15:16;;;;;;;9.93;8.82;;;;;;;22.80;82.45;94997.00;1029177;28;20023;-80
2021/06/20 01:15:49;;;;;;;11.02;9.93;;;;;;;22.83;82.55;94995.63;1029485;28;20019;-80
2021/06/20 01:16:20;;;;;;;11.50;9.50;;;;;;;22.81;82.49;94995.91;1029770;28;20102;-81
2021/06/20 01:16:51;;;;;;;14.15;10.60;;;;;;;22.82;82.38;94991.31;1029302;28;20038;-79
2021/06/20 01:17:22;;;;;;;13.35;9.27;;;;;;;22.67;82.27;94976.72;1029090;28;20035;-82
2021/06/20 01:17:53;;;;;;;10.93;9.20;;;;;;;22.79;82.54;95000.78;1036943;28;20026;-81
2021/06/20 01:18:23;;;;;;;11.52;9.50;;;;;;;22.74;82.53;95001.59;1037396;28;20101;-82
2021/06/20 01:18:54;;;;;;;10.60;9.43;;;;;;;22.62;82.75;94982.16;1029172;28;20130;-82
2021/06/20 01:19:25;;;;;;;10.88;8.98;;;;;;;22.69;82.34;94979.16;1029169;28;20058;-81
2021/06/20 01:19:56;;;;;;;12.63;9.43;;;;;;;22.84;82.23;94997.25;1029196;28;20027;-82
2021/06/20 01:20:26;;;;;;;14.18;10.57;;;;;;;22.84;82.25;94997.25;1028954;28;20102;-80
2021/06/20 01:20:57;;;;;;;10.77;9.27;;;;;;;22.69;82.06;94971.03;1041188;28;20112;-82
2021/06/20 01:21:27;;;;;;;12.85;9.32;;;;;;;22.81;82.23;94997.81;1033060;28;20033;-82
2021/06/20 01:22:16;;;;;;;9.95;8.95;;;;;;;22.72;82.77;95000.28;1033065;28;20105;-81
2021/06/20 01:22:48;;;;;;;12.85;10.38;;;;;;;22.67;82.62;94984.84;1037412;28;20022;-79
2021/06/20 01:23:19;;;;;;;13.98;11.48;;;;;;;22.73;82.76;94996.50;1033338;28;20042;-81
2021/06/20 01:23:49;;;;;;;10.88;9.77;;;;;;;22.63;83.10;94991.91;1029034;28;20121;-81
2021/06/20 01:24:20;;;;;;;12.13;10.55;;;;;;;22.58;83.40;94981.09;1028960;28;20122;-82
2021/06/20 01:24:55;;;;;;;12.45;10.93;;;;;;;22.62;83.70;94992.19;1025137;29;20537;-81
2021/06/20 01:25:28;;;;;;;11.52;10.18;;;;;;;22.43;83.90;94968.41;1029201;28;20105;-82
2021/06/20 01:25:58;;;;;;;11.55;10.35;;;;;;;22.55;83.78;94984.34;1037076;28;20042;-81
2021/06/20 01:26:32;;;;;;;12.93;9.88;;;;;;;22.44;83.95;94972.75;1041219;28;20494;-80
2021/06/20 01:27:03;;;;;;;11.48;9.32;;;;;;;22.46;84.53;94989.53;1041122;28;20025;-80
2021/06/20 01:27:42;;;;;;;14.48;10.27;;;;;;;22.38;84.57;94980.09;1033115;28;20018;-80
2021/06/20 01:28:13;;;;;;;13.07;11.17;;;;;;;22.56;84.26;94997.63;1037204;28;20034;-80
2021/06/20 01:28:51;;;;;;;10.27;9.00;;;;;;;22.48;84.29;94981.94;1028855;28;20338;-80
2021/06/20 01:29:23;;;;;;;12.25;10.10;;;;;;;22.55;84.11;94987.88;1036906;28;20030;-80
2021/06/20 01:29:54;;;;;;;11.23;9.68;;;;;;;22.32;83.97;94956.00;1025055;29;20564;-81
2021/06/20 01:30:29;;;;;;;12.65;9.32;;;;;;;22.44;84.61;94986.28;1029166;28;20049;-80
2021/06/20 01:31:00;;;;;;;11.95;9.40;;;;;;;22.51;84.34;94991.41;1029231;28;20070;-82
2021/06/20 01:31:35;;;;;;;11.00;8.80;;;;;;;22.56;84.25;94999.50;1029439;28;20505;-80
2021/06/20 01:32:06;;;;;;;13.75;9.65;;;;;;;22.46;84.08;94964.38;1037409;28;20025;-81
2021/06/20 01:32:36;;;;;;;11.70;9.05;;;;;;;22.50;84.08;94978.94;1029236;28;20338;-80
2021/06/20 01:33:09;;;;;;;10.38;9.30;;;;;;;22.39;84.63;94989.81;1029505;28;20118;-80
2021/06/20 01:33:40;;;;;;;12.90;9.88;;;;;;;22.44;84.88;95001.72;1029186;28;20692;-80
2021/06/20 01:34:10;;;;;;;12.10;9.48;;;;;;;22.47;84.96;94990.31;1033159;28;20036;-80
2021/06/20 01:34:41;;;;;;;10.00;8.95;;;;;;;22.38;85.85;95004.44;1028925;28;20126;-81
2021/06/20 01:35:12;;;;;;;14.90;9.82;;;;;;;22.43;85.67;95006.28;1033261;28;20033;-80
2021/06/20 01:35:43;;;;;;;10.23;9.15;;;;;;;22.41;85.46;94992.25;1041275;28;20493;-80
2021/06/20 01:36:15;;;;;;;12.20;8.77;;;;;;;22.36;85.46;94984.97;1032954;28;20049;-81
2021/06/20 01:36:46;;;;;;;11.38;10.20;;;;;;;22.47;85.47;94999.28;1033313;28;20391;-80
2021/06/20 01:37:17;;;;;;;13.00;9.55;;;;;;;22.44;85.84;94999.00;1029151;28;20031;-81
2021/06/20 01:37:47;;;;;;;12.52;9.65;;;;;;;22.42;85.93;94993.06;1025154;29;20028;-80
2021/06/20 01:38:18;;;;;;;13.80;9.43;;;;;;;22.33;86.13;94998.22;1028823;28;20122;-80
2021/06/20 01:38:48;;;;;;;13.73;9.10;;;;;;;22.25;86.53;94991.44;1033262;28;20024;-81
2021/06/20 01:39:19;;;;;;;12.90;9.52;;;;;;;22.27;86.32;94991.16;1029174;28;20019;-80
2021/06/20 01:39:50;;;;;;;13.48;9.40;;;;;;;22.25;86.62;94987.94;1041431;28;20017;-79
2021/06/20 01:40:21;;;;;;;12.07;9.65;;;;;;;22.27;86.17;94981.19;1028958;28;20011;-79
2021/06/20 01:40:52;;;;;;;12.48;9.75;;;;;;;22.33;86.17;94992.81;1032760;28;20105;-80
2021/06/20 01:41:22;;;;;;;12.02;9.25;;;;;;;22.19;86.27;94979.03;1037001;28;20104;-80
2021/06/20 01:41:53;;;;;;;10.80;9.70;;;;;;;22.27;86.32;94993.88;1029133;28;20113;-81
2021/06/20 01:42:23;;;;;;;11.10;9.52;;;;;;;22.16;86.24;94971.44;1037040;28;20029;-81
2021/06/20 01:42:54;;;;;;;10.23;9.07;;;;;;;22.33;86.27;94999.03;1028931;28;20496;-82
2021/06/20 01:43:25;;;;;;;11.55;9.35;;;;;;;22.26;86.55;94993.06;1028978;28;20037;-80
2021/06/20 01:43:55;;;;;;;14.45;9.70;;;;;;;22.19;86.21;94979.81;1033139;28;20059;-80
2021/06/20 01:44:26;;;;;;;12.52;9.40;;;;;;;22.33;86.54;95006.34;1025278;28;20011;-80
2021/06/20 01:44:57;;;;;;;11.02;9.05;;;;;;;22.11;86.72;94977.66;1032912;28;20029;-80
2021/06/20 01:45:28;;;;;;;13.70;10.15;;;;;;;22.31;86.49;94997.66;1033421;28;20029;-81
2021/06/20 01:45:59;;;;;;;12.90;9.90;;;;;;;22.35;86.09;95007.69;1033452;28;20015;-80
2021/06/20 01:46:29;;;;;;;10.40;9.30;;;;;;;22.36;86.30;94997.66;1033301;28;20110;-80
2021/06/20 01:47:00;;;;;;;13.75;9.82;;;;;;;22.17;87.24;95002.78;1033176;28;20053;-81
2021/06/20 01:47:30;;;;;;;10.23;9.15;;;;;;;22.10;87.92;95002.28;1033065;28;20109;-80
2021/06/20 01:48:01;;;;;;;11.38;9.18;;;;;;;22.11;87.76;94993.09;1036867;28;20022;-79
2021/06/20 01:48:32;;;;;;;12.75;9.70;;;;;;;22.14;87.80;95004.16;1041216;28;20346;-80
2021/06/20 01:49:02;;;;;;;11.30;9.70;;;;;;;22.10;88.05;95003.09;1037016;28;20018;-80
2021/06/20 01:49:33;;;;;;;14.00;9.18;;;;;;;22.08;87.67;94982.81;1041176;28;20491;-80
2021/06/20 01:50:09;;;;;;;12.10;9.48;;;;;;;22.11;87.41;94976.88;1033107;28;20022;-80
2021/06/20 01:50:39;;;;;;;10.15;9.15;;;;;;;22.17;87.34;94987.41;1032695;28;20065;-83
2021/06/20 01:51:10;;;;;;;14.50;9.50;;;;;;;22.23;86.91;94990.91;1037021;28;20108;-80
2021/06/20 01:51:43;;;;;;;12.00;9.65;;;;;;;22.17;86.74;94975.75;1033211;28;20460;-81
2021/06/20 01:52:20;;;;;;;15.32;10.00;;;;;;;22.39;86.52;94999.81;1032976;28;20018;-81
2021/06/20 01:53:00;;;;;;;12.38;9.73;;;;;;;22.38;86.60;94998.19;1029146;28;20025;-81
2021/06/20 01:53:30;;;;;;;11.65;9.32;;;;;;;22.25;86.70;94986.03;1033192;28;20409;-80
2021/06/20 01:54:01;;;;;;;11.55;9.48;;;;;;;22.26;86.50;94984.94;1033109;28;20101;-80
2021/06/20 01:54:36;;;;;;;11.70;9.43;;;;;;;22.34;86.30;95003.34;1032916;28;20098;-80
2021/06/20 01:55:10;;;;;;;12.20;9.30;;;;;;;22.30;86.23;94977.94;1028544;28;20024;-80
2021/06/20 01:55:44;;;;;;;12.75;9.65;;;;;;;22.45;86.01;94997.91;1040782;28;20473;-80
2021/06/20 01:56:15;;;;;;;11.50;10.00;;;;;;;22.37;85.78;94980.34;1040922;28;20017;-80
2021/06/20 01:56:45;;;;;;;11.40;9.68;;;;;;;22.32;85.42;94964.13;1032517;28;20049;-80
2021/06/20 01:57:35;;;;;;;12.27;9.68;;;;;;;22.58;84.89;94994.63;1032877;28;20157;-81
2021/06/20 01:58:07;;;;;;;13.95;10.45;;;;;;;22.53;84.79;94990.03;1033051;28;20023;-80
2021/06/20 01:58:37;;;;;;;10.10;8.98;;;;;;;22.43;84.89;94970.31;1032674;28;20113;-81
2021/06/20 01:59:08;;;;;;;15.48;10.15;;;;;;;22.51;84.93;94994.91;1037030;28;20026;-81
2021/06/20 01:59:38;;;;;;;11.07;9.80;;;;;;;22.56;84.74;94999.50;1020849;28;20122;-81
2021/06/20 02:00:14;;;;;;;10.80;9.68;;;;;;;22.54;84.77;94991.66;1029201;28;20046;-81
2021/06/20 02:00:48;;;;;;;13.70;9.57;;;;;;;22.55;84.58;94992.47;1028736;28;20058;-80
2021/06/20 02:01:19;;;;;;;14.30;9.57;;;;;;;22.54;84.61;94988.97;1028994;28;20023;-80
2021/06/20 02:01:50;;;;;;;10.85;8.93;;;;;;;22.59;84.22;94988.16;1024786;28;20114;-81
2021/06/20 02:02:20;;;;;;;10.68;9.57;;;;;;;22.50;84.17;94970.84;1025060;29;20037;-81
2021/06/20 02:02:51;;;;;;;10.75;9.18;;;;;;;22.54;84.29;94980.84;1036769;28;20507;-81
2021/06/20 02:03:24;;;;;;;12.02;9.65;;;;;;;22.48;84.10;94971.09;1036927;28;20092;-81
2021/06/20 02:03:54;;;;;;;12.57;9.57;;;;;;;22.48;84.53;94984.63;1025008;28;20034;-81
2021/06/20 02:04:25;;;;;;;14.00;10.05;;;;;;;22.60;84.54;94997.88;1025010;29;20034;-81
2021/06/20 02:04:56;;;;;;;10.63;9.57;;;;;;;22.56;84.64;95003.03;1032854;28;20193;-81
2021/06/20 02:05:26;;;;;;;13.38;9.45;;;;;;;22.59;84.45;94998.97;1036812;28;20057;-81
2021/06/20 02:05:59;;;;;;;13.20;9.48;;;;;;;22.55;84.30;94992.47;1028747;28;20015;-81
2021/06/20 02:06:34;;;;;;;11.20;9.98;;;;;;;22.46;84.57;94972.47;1033305;28;20022;-81
2021/06/20 02:07:07;;;;;;;13.95;9.55;;;;;;;22.46;85.22;94988.72;1028827;28;20440;-81
2021/06/20 02:07:38;;;;;;;13.10;9.60;;;;;;;22.25;85.98;94971.69;1033147;28;20110;-81
2021/06/20 02:08:09;;;;;;;12.35;9.20;;;;;;;22.40;86.26;94996.84;1033181;28;20117;-81
2021/06/20 02:08:39;;;;;;;11.77;9.63;;;;;;;22.21;86.16;94971.44;1029346;28;20023;-81
2021/06/20 02:09:10;;;;;;;11.48;9.20;;;;;;;22.42;85.71;94982.25;1028914;28;20078;-81
2021/06/20 02:09:40;;;;;;;11.10;9.35;;;;;;;22.46;85.81;94984.09;1032900;28;20030;-82
2021/06/20 02:10:13;;;;;;;9.95;8.65;;;;;;;22.46;85.24;94981.41;1032816;28;20121;-82
2021/06/20 02:10:44;;;;;;;11.70;8.98;;;;;;;22.52;84.53;94983.03;1033099;28;20010;-81
2021/06/20 02:11:14;;;;;;;11.88;9.10;;;;;;;22.57;84.32;94984.88;1024853;29;20393;-81
2021/06/20 02:11:45;;;;;;;11.40;9.68;;;;;;;22.55;84.50;94989.75;1036996;28;20060;-81
2021/06/20 02:12:16;;;;;;;11.35;9.27;;;;;;;22.42;84.54;94966.00;1032939;28;20614;-81
2021/06/20 02:12:47;;;;;;;12.43;8.98;;;;;;;22.36;84.86;94963.31;1037173;28;20106;-81
2021/06/20 02:13:18;;;;;;;11.85;9.25;;;;;;;22.44;84.80;94972.75;1032812;28;20041;-81
2021/06/20 02:13:49;;;;;;;10.50;9.20;;;;;;;22.41;85.08;94978.72;1033077;28;20101;-81
2021/06/20 02:14:19;;;;;;;12.20;9.85;;;;;;;22.07;85.36;94937.91;1033196;28;20092;-81
2021/06/20 02:14:50;;;;;;;11.15;9.63;;;;;;;22.22;85.85;94971.16;1033524;28;20121;-82
2021/06/20 02:15:22;;;;;;;9.75;8.68;;;;;;;22.27;85.94;94977.63;1025047;28;20027;-81
2021/06/20 02:15:53;;;;;;;11.73;9.82;;;;;;;22.29;85.80;94979.00;1029500;28;20444;-82
2021/06/20 02:16:24;;;;;;;11.57;9.48;;;;;;;22.31;86.13;94993.09;1029330;28;20581;-81
2021/06/20 02:16:54;;;;;;;11.85;9.70;;;;;;;22.30;86.19;94999.56;1033543;28;20026;-82
2021/06/20 02:17:29;;;;;;;11.35;8.68;;;;;;;22.26;86.35;94989.53;1029203;28;20097;-82
2021/06/20 02:18:00;;;;;;;10.77;9.40;;;;;;;22.32;85.94;94989.28;1029073;28;20065;-82
2021/06/20 02:18:31;;;;;;;11.05;9.77;;;;;;;22.32;85.77;94989.28;1029031;28;20030;-82
2021/06/20 02:19:02;;;;;;;12.93;10.38;;;;;;;22.23;85.60;94975.47;1029266;28;20023;-81
2021/06/20 02:19:32;;;;;;;11.75;10.13;;;;;;;22.39;85.82;95005.25;1029153;28;20026;-81
2021/06/20 02:20:08;;;;;;;11.57;8.93;;;;;;;22.43;85.57;94989.25;1037073;28;20121;-81
2021/06/20 02:20:39;;;;;;;11.30;9.18;;;;;;;22.32;86.38;95004.72;1029056;28;20039;-81
2021/06/20 02:21:10;;;;;;;11.20;9.68;;;;;;;22.17;87.38;94998.22;1025236;29;20071;-81
2021/06/20 02:21:41;;;;;;;10.65;9.52;;;;;;;22.06;88.15;95007.41;1029299;28;20118;-80
2021/06/20 02:22:12;;;;;;;13.48;9.27;;;;;;;22.06;88.43;94999.31;1033133;28;20033;-81
2021/06/20 02:22:43;;;;;;;12.52;8.77;;;;;;;22.10;88.29;95000.41;1029169;28;20023;-82
2021/06/20 02:23:14;;;;;;;11.35;8.80;;;;;;;21.99;88.01;94977.94;1036908;28;20064;-81
2021/06/20 02:23:45;;;;;;;14.18;9.77;;;;;;;22.18;87.49;95001.72;1032964;28;20074;-80
2021/06/20 02:24:15;;;;;;;11.60;9.35;;;;;;;22.11;87.34;94987.69;1033041;28;20326;-82
2021/06/20 02:24:46;;;;;;;12.25;9.02;;;;;;;22.17;87.99;95013.63;1029061;28;20113;-81
2021/06/20 02:25:17;;;;;;;12.70;9.18;;;;;;;22.22;87.59;95010.91;1033085;28;20037;-82
2021/06/20 02:25:48;;;;;;;12.90;9.73;;;;;;;22.26;87.20;95014.72;1033072;28;20624;-80
2021/06/20 02:26:19;;;;;;;11.27;8.90;;;;;;;22.23;87.02;95015.25;1028950;28;20053;-81